Topaz, Idaho
Current Conditions -  °F | °C
As of 7:28 AM on Monday 26 Jan 2015 (Local Time) from KPIH Reporting Station
Moderate Fog Moderate Fog  
Wind Chill: 22°   Ceiling: 200
Heat Index: 27°   Visibility: 0.25mi
Dew Point: 27°   Wind: 5mph
Humidity: 100%   Direction: 50°NE
Pressure: 30.43"   Gusts: NA
Location:  42.5711°N, 112.021°W
Report Text: KPIH 261428Z 05004KT 1/4SM R21/2000V2600FT FZFG VV002 M03/M03 A3043 RMK AO2 T10281028
Loading
Personal Weather Stations






























Interactive Weather Map New forecast layout! Learn more

10-Day Weather Forecast

Advertisements
Track Severe Weather on mobile